sensor_id;sensor_type;location;lat;lon;timestamp;pressure;altitude;pressure_sealevel;temperature;humidity
14383;BME280;7275;50.328;8.720;2023-08-06T00:01:59;98826.84;;;22.24;54.40
14383;BME280;7275;50.328;8.720;2023-08-06T00:04:26;98824.16;;;22.24;54.18
14383;BME280;7275;50.328;8.720;2023-08-06T00:06:54;98813.78;;;22.30;54.16
14383;BME280;7275;50.328;8.720;2023-08-06T00:09:23;98812.47;;;22.34;54.25
14383;BME280;7275;50.328;8.720;2023-08-06T00:11:51;98815.00;;;22.35;53.84
14383;BME280;7275;50.328;8.720;2023-08-06T00:14:19;98807.09;;;22.34;54.24
14383;BME280;7275;50.328;8.720;2023-08-06T00:16:47;98802.69;;;22.33;54.02
14383;BME280;7275;50.328;8.720;2023-08-06T00:19:14;98800.16;;;22.31;54.27
14383;BME280;7275;50.328;8.720;2023-08-06T00:21:42;98804.00;;;22.28;53.90
14383;BME280;7275;50.328;8.720;2023-08-06T00:24:10;98796.38;;;22.24;54.45
14383;BME280;7275;50.328;8.720;2023-08-06T00:26:39;98804.78;;;22.21;54.02
14383;BME280;7275;50.328;8.720;2023-08-06T00:29:06;98798.97;;;22.16;54.27
14383;BME280;7275;50.328;8.720;2023-08-06T00:31:34;98808.81;;;22.07;54.67
14383;BME280;7275;50.328;8.720;2023-08-06T00:34:01;98802.88;;;22.04;54.83
14383;BME280;7275;50.328;8.720;2023-08-06T00:36:29;98795.97;;;22.01;54.79
14383;BME280;7275;50.328;8.720;2023-08-06T00:38:57;98788.31;;;21.97;54.87
14383;BME280;7275;50.328;8.720;2023-08-06T00:41:24;98775.19;;;21.94;54.78
14383;BME280;7275;50.328;8.720;2023-08-06T00:43:53;98773.47;;;21.93;55.22
14383;BME280;7275;50.328;8.720;2023-08-06T00:46:21;98782.13;;;21.96;54.93
14383;BME280;7275;50.328;8.720;2023-08-06T00:51:18;98790.72;;;22.00;54.58
14383;BME280;7275;50.328;8.720;2023-08-06T00:53:46;98784.22;;;22.02;54.48
14383;BME280;7275;50.328;8.720;2023-08-06T00:56:14;98775.56;;;21.99;54.93
14383;BME280;7275;50.328;8.720;2023-08-06T00:58:42;98772.06;;;21.98;54.64
14383;BME280;7275;50.328;8.720;2023-08-06T01:01:11;98764.78;;;21.99;54.83
14383;BME280;7275;50.328;8.720;2023-08-06T01:03:38;98769.34;;;21.98;54.75
14383;BME280;7275;50.328;8.720;2023-08-06T01:06:06;98759.41;;;21.99;54.59
14383;BME280;7275;50.328;8.720;2023-08-06T01:08:40;98762.44;;;21.96;54.68
14383;BME280;7275;50.328;8.720;2023-08-06T01:11:24;98763.28;;;21.96;54.78
14383;BME280;7275;50.328;8.720;2023-08-06T01:13:59;98762.25;;;21.97;54.44
14383;BME280;7275;50.328;8.720;2023-08-06T01:16:32;98754.34;;;21.96;54.90
14383;BME280;7275;50.328;8.720;2023-08-06T01:19:01;98751.81;;;21.94;54.89
14383;BME280;7275;50.328;8.720;2023-08-06T01:21:29;98745.44;;;21.95;54.70
14383;BME280;7275;50.328;8.720;2023-08-06T01:23:57;98748.13;;;21.95;54.28
14383;BME280;7275;50.328;8.720;2023-08-06T01:26:30;98741.63;;;21.88;54.72
14383;BME280;7275;50.328;8.720;2023-08-06T01:29:06;98742.94;;;21.84;54.92
14383;BME280;7275;50.328;8.720;2023-08-06T01:31:37;98743.09;;;21.83;54.85
14383;BME280;7275;50.328;8.720;2023-08-06T01:34:08;98740.00;;;21.78;55.14
14383;BME280;7275;50.328;8.720;2023-08-06T01:36:38;98731.53;;;21.73;55.18
14383;BME280;7275;50.328;8.720;2023-08-06T01:39:06;98737.06;;;21.71;55.08
14383;BME280;7275;50.328;8.720;2023-08-06T01:41:33;98725.88;;;21.66;54.87
14383;BME280;7275;50.328;8.720;2023-08-06T01:44:01;98726.22;;;21.63;55.29
14383;BME280;7275;50.328;8.720;2023-08-06T01:46:29;98721.97;;;21.61;55.24
14383;BME280;7275;50.328;8.720;2023-08-06T01:48:56;98723.97;;;21.59;55.40
14383;BME280;7275;50.328;8.720;2023-08-06T01:51:24;98715.19;;;21.57;55.39
14383;BME280;7275;50.328;8.720;2023-08-06T01:53:53;98718.34;;;21.52;55.42
14383;BME280;7275;50.328;8.720;2023-08-06T01:56:21;98710.44;;;21.51;55.56
14383;BME280;7275;50.328;8.720;2023-08-06T01:58:48;98699.66;;;21.51;55.61
14383;BME280;7275;50.328;8.720;2023-08-06T02:01:16;98696.28;;;21.48;55.39
14383;BME280;7275;50.328;8.720;2023-08-06T02:03:44;98694.56;;;21.47;55.41
14383;BME280;7275;50.328;8.720;2023-08-06T02:06:12;98693.03;;;21.45;55.70
14383;BME280;7275;50.328;8.720;2023-08-06T02:08:39;98690.34;;;21.45;55.66
14383;BME280;7275;50.328;8.720;2023-08-06T02:11:08;98681.41;;;21.44;55.53
14383;BME280;7275;50.328;8.720;2023-08-06T02:13:36;98684.09;;;21.44;55.79
14383;BME280;7275;50.328;8.720;2023-08-06T02:16:06;98684.09;;;21.44;55.71
14383;BME280;7275;50.328;8.720;2023-08-06T02:18:35;98686.66;;;21.46;55.37
14383;BME280;7275;50.328;8.720;2023-08-06T02:21:02;98674.50;;;21.42;55.52
14383;BME280;7275;50.328;8.720;2023-08-06T02:23:30;98683.81;;;21.47;55.43
14383;BME280;7275;50.328;8.720;2023-08-06T02:25:59;98679.13;;;21.49;55.70
14383;BME280;7275;50.328;8.720;2023-08-06T02:28:28;98672.38;;;21.45;55.66
14383;BME280;7275;50.328;8.720;2023-08-06T02:30:56;98675.47;;;21.51;55.45
14383;BME280;7275;50.328;8.720;2023-08-06T02:33:24;98658.16;;;21.53;55.42
14383;BME280;7275;50.328;8.720;2023-08-06T02:35:58;98660.72;;;21.55;55.68
14383;BME280;7275;50.328;8.720;2023-08-06T02:38:26;98658.56;;;21.58;55.47
14383;BME280;7275;50.328;8.720;2023-08-06T02:40:54;98663.06;;;21.58;55.64
14383;BME280;7275;50.328;8.720;2023-08-06T02:43:21;98660.09;;;21.61;55.57
14383;BME280;7275;50.328;8.720;2023-08-06T02:45:51;98651.72;;;21.64;55.59
14383;BME280;7275;50.328;8.720;2023-08-06T02:48:18;98653.41;;;21.65;55.42
14383;BME280;7275;50.328;8.720;2023-08-06T02:50:46;98653.41;;;21.65;55.55
14383;BME280;7275;50.328;8.720;2023-08-06T02:53:13;98645.03;;;21.68;55.50
14383;BME280;7275;50.328;8.720;2023-08-06T02:55:45;98639.50;;;21.69;55.33
14383;BME280;7275;50.328;8.720;2023-08-06T02:58:14;98641.72;;;21.74;55.37
14383;BME280;7275;50.328;8.720;2023-08-06T03:00:41;98629.00;;;21.76;55.13
14383;BME280;7275;50.328;8.720;2023-08-06T03:03:10;98628.25;;;21.74;55.26
14383;BME280;7275;50.328;8.720;2023-08-06T03:05:38;98619.38;;;21.73;55.50
14383;BME280;7275;50.328;8.720;2023-08-06T03:08:06;98625.91;;;21.71;55.45
14383;BME280;7275;50.328;8.720;2023-08-06T03:10:34;98627.91;;;21.69;55.20
14383;BME280;7275;50.328;8.720;2023-08-06T03:13:02;98627.22;;;21.67;55.57
14383;BME280;7275;50.328;8.720;2023-08-06T03:15:30;98629.38;;;21.63;55.53
14383;BME280;7275;50.328;8.720;2023-08-06T03:17:57;98610.66;;;21.62;55.64
14383;BME280;7275;50.328;8.720;2023-08-06T03:20:26;98611.69;;;21.61;55.47
14383;BME280;7275;50.328;8.720;2023-08-06T03:22:54;98606.31;;;21.61;55.60
14383;BME280;7275;50.328;8.720;2023-08-06T03:25:21;98602.94;;;21.59;55.75
14383;BME280;7275;50.328;8.720;2023-08-06T03:27:49;98598.84;;;21.55;55.59
14383;BME280;7275;50.328;8.720;2023-08-06T03:30:16;98598.97;;;21.53;55.84
14383;BME280;7275;50.328;8.720;2023-08-06T03:32:44;98601.84;;;21.52;55.80
14383;BME280;7275;50.328;8.720;2023-08-06T03:35:13;98601.13;;;21.49;55.70
14383;BME280;7275;50.328;8.720;2023-08-06T03:37:42;98594.22;;;21.47;56.04
14383;BME280;7275;50.328;8.720;2023-08-06T03:40:10;98595.22;;;21.46;55.78
14383;BME280;7275;50.328;8.720;2023-08-06T03:42:38;98598.22;;;21.43;56.12
14383;BME280;7275;50.328;8.720;2023-08-06T03:45:06;98585.78;;;21.42;56.18
14383;BME280;7275;50.328;8.720;2023-08-06T03:47:35;98596.13;;;21.37;55.97
14383;BME280;7275;50.328;8.720;2023-08-06T03:50:03;98588.06;;;21.37;56.21
14383;BME280;7275;50.328;8.720;2023-08-06T03:52:31;98578.31;;;21.36;56.24
14383;BME280;7275;50.328;8.720;2023-08-06T03:55:00;98582.84;;;21.35;55.97
14383;BME280;7275;50.328;8.720;2023-08-06T03:57:28;98580.00;;;21.37;56.10
14383;BME280;7275;50.328;8.720;2023-08-06T03:59:56;98583.00;;;21.34;56.11
14383;BME280;7275;50.328;8.720;2023-08-06T04:02:23;98584.16;;;21.31;56.19
14383;BME280;7275;50.328;8.720;2023-08-06T04:04:51;98577.75;;;21.32;56.47
14383;BME280;7275;50.328;8.720;2023-08-06T04:07:20;98583.00;;;21.34;56.33
14383;BME280;7275;50.328;8.720;2023-08-06T04:09:52;98581.75;;;21.28;56.76
14383;BME280;7275;50.328;8.720;2023-08-06T04:12:22;98577.06;;;21.30;56.33
14383;BME280;7275;50.328;8.720;2023-08-06T04:14:50;98572.38;;;21.32;56.27
14383;BME280;7275;50.328;8.720;2023-08-06T04:17:17;98573.94;;;21.35;56.46
14383;BME280;7275;50.328;8.720;2023-08-06T04:19:47;98575.75;;;21.34;56.24
14383;BME280;7275;50.328;8.720;2023-08-06T04:22:15;98569.41;;;21.35;56.53
14383;BME280;7275;50.328;8.720;2023-08-06T04:24:43;98574.47;;;21.38;56.56
14383;BME280;7275;50.328;8.720;2023-08-06T04:27:12;98577.56;;;21.43;55.95
14383;BME280;7275;50.328;8.720;2023-08-06T04:29:42;98556.03;;;21.43;56.14
14383;BME280;7275;50.328;8.720;2023-08-06T04:32:10;98562.63;;;21.49;56.26
14383;BME280;7275;50.328;8.720;2023-08-06T04:34:38;98572.25;;;21.52;56.01
14383;BME280;7275;50.328;8.720;2023-08-06T04:37:05;98565.88;;;21.53;56.17
14383;BME280;7275;50.328;8.720;2023-08-06T04:39:33;98566.41;;;21.56;55.96
14383;BME280;7275;50.328;8.720;2023-08-06T04:42:01;98574.16;;;21.59;55.78
14383;BME280;7275;50.328;8.720;2023-08-06T04:44:28;98567.63;;;21.62;55.78
14383;BME280;7275;50.328;8.720;2023-08-06T04:46:57;98565.78;;;21.62;55.86
14383;BME280;7275;50.328;8.720;2023-08-06T04:49:25;98568.47;;;21.62;55.66
14383;BME280;7275;50.328;8.720;2023-08-06T04:51:53;98563.25;;;21.61;55.84
14383;BME280;7275;50.328;8.720;2023-08-06T04:54:21;98568.09;;;21.57;55.81
14383;BME280;7275;50.328;8.720;2023-08-06T04:56:48;98564.56;;;21.57;56.02
14383;BME280;7275;50.328;8.720;2023-08-06T04:59:16;98568.41;;;21.54;56.22
14383;BME280;7275;50.328;8.720;2023-08-06T05:01:43;98563.19;;;21.53;56.17
14383;BME280;7275;50.328;8.720;2023-08-06T05:04:12;98553.41;;;21.52;56.12
14383;BME280;7275;50.328;8.720;2023-08-06T05:06:40;98561.19;;;21.55;55.95
14383;BME280;7275;50.328;8.720;2023-08-06T05:09:08;98565.88;;;21.53;56.34
14383;BME280;7275;50.328;8.720;2023-08-06T05:11:35;98565.72;;;21.54;56.22
14383;BME280;7275;50.328;8.720;2023-08-06T05:14:03;98565.72;;;21.54;55.91
14383;BME280;7275;50.328;8.720;2023-08-06T05:16:30;98566.72;;;21.53;56.26
14383;BME280;7275;50.328;8.720;2023-08-06T05:18:58;98568.56;;;21.53;56.31
14383;BME280;7275;50.328;8.720;2023-08-06T05:21:27;98570.78;;;21.57;55.85
14383;BME280;7275;50.328;8.720;2023-08-06T05:23:56;98570.09;;;21.55;56.46
14383;BME280;7275;50.328;8.720;2023-08-06T05:26:23;98563.56;;;21.58;55.77
14383;BME280;7275;50.328;8.720;2023-08-06T05:28:51;98573.78;;;21.54;55.91
14383;BME280;7275;50.328;8.720;2023-08-06T05:31:18;98572.25;;;21.52;55.93
14383;BME280;7275;50.328;8.720;2023-08-06T05:33:46;98578.78;;;21.49;55.88
14383;BME280;7275;50.328;8.720;2023-08-06T05:36:14;98578.66;;;21.51;55.67
14383;BME280;7275;50.328;8.720;2023-08-06T05:38:42;98578.41;;;21.44;56.13
14383;BME280;7275;50.328;8.720;2023-08-06T05:41:10;98580.25;;;21.43;55.98
14383;BME280;7275;50.328;8.720;2023-08-06T05:43:38;98580.25;;;21.43;55.98
14383;BME280;7275;50.328;8.720;2023-08-06T05:46:05;98577.56;;;21.43;55.95
14383;BME280;7275;50.328;8.720;2023-08-06T05:48:33;98596.22;;;21.45;56.23
14383;BME280;7275;50.328;8.720;2023-08-06T05:51:00;98589.06;;;21.36;56.45
14383;BME280;7275;50.328;8.720;2023-08-06T05:53:28;98581.06;;;21.26;56.19
14383;BME280;7275;50.328;8.720;2023-08-06T05:55:57;98585.06;;;21.22;56.53
14383;BME280;7275;50.328;8.720;2023-08-06T05:58:25;98584.63;;;21.17;56.68
14383;BME280;7275;50.328;8.720;2023-08-06T06:00:55;98578.97;;;21.20;56.46
14383;BME280;7275;50.328;8.720;2023-08-06T06:03:23;98579.44;;;21.16;56.93
14383;BME280;7275;50.328;8.720;2023-08-06T06:05:50;98579.59;;;21.14;56.95
14383;BME280;7275;50.328;8.720;2023-08-06T06:08:18;98577.59;;;21.16;56.85
14383;BME280;7275;50.328;8.720;2023-08-06T06:10:45;98585.38;;;21.19;57.01
14383;BME280;7275;50.328;8.720;2023-08-06T06:13:14;98581.81;;;21.19;56.91
14383;BME280;7275;50.328;8.720;2023-08-06T06:15:42;98579.25;;;21.17;57.19
14383;BME280;7275;50.328;8.720;2023-08-06T06:18:10;98575.31;;;21.21;57.20
14383;BME280;7275;50.328;8.720;2023-08-06T06:20:37;98583.81;;;21.17;57.35
14383;BME280;7275;50.328;8.720;2023-08-06T06:23:05;98572.81;;;21.10;57.10
14383;BME280;7275;50.328;8.720;2023-08-06T06:25:33;98587.25;;;21.09;57.16
14383;BME280;7275;50.328;8.720;2023-08-06T06:28:00;98575.66;;;21.09;57.35
14383;BME280;7275;50.328;8.720;2023-08-06T06:30:30;98582.28;;;21.14;57.32
14383;BME280;7275;50.328;8.720;2023-08-06T06:32:58;98583.94;;;21.15;57.52
14383;BME280;7275;50.328;8.720;2023-08-06T06:35:25;98584.50;;;21.19;57.57
14383;BME280;7275;50.328;8.720;2023-08-06T06:37:53;98589.03;;;21.18;57.58
14383;BME280;7275;50.328;8.720;2023-08-06T06:40:21;98586.63;;;21.15;57.68
14383;BME280;7275;50.328;8.720;2023-08-06T06:42:49;98581.56;;;21.12;57.89
14383;BME280;7275;50.328;8.720;2023-08-06T06:45:16;98577.06;;;21.13;57.77
14383;BME280;7275;50.328;8.720;2023-08-06T06:47:45;98580.44;;;21.15;57.66
14383;BME280;7275;50.328;8.720;2023-08-06T06:50:13;98581.41;;;21.14;57.79
14383;BME280;7275;50.328;8.720;2023-08-06T06:52:41;98580.34;;;21.07;58.33
14383;BME280;7275;50.328;8.720;2023-08-06T06:55:09;98583.31;;;21.04;58.59
14383;BME280;7275;50.328;8.720;2023-08-06T06:57:36;98576.97;;;20.95;58.56
14383;BME280;7275;50.328;8.720;2023-08-06T07:00:05;98573.16;;;20.98;58.49
14383;BME280;7275;50.328;8.720;2023-08-06T07:02:33;98580.88;;;21.01;58.34
14383;BME280;7275;50.328;8.720;2023-08-06T07:05:03;98583.31;;;21.04;58.65
14383;BME280;7275;50.328;8.720;2023-08-06T07:07:30;98579.19;;;21.09;58.02
14383;BME280;7275;50.328;8.720;2023-08-06T07:09:58;98581.41;;;21.14;58.42
14383;BME280;7275;50.328;8.720;2023-08-06T07:12:26;98575.59;;;21.18;57.89
14383;BME280;7275;50.328;8.720;2023-08-06T07:14:54;98570.63;;;21.23;58.03
14383;BME280;7275;50.328;8.720;2023-08-06T07:17:21;98575.22;;;21.31;57.94
14383;BME280;7275;50.328;8.720;2023-08-06T07:19:49;98575.06;;;21.32;58.17
14383;BME280;7275;50.328;8.720;2023-08-06T07:22:18;98569.78;;;21.40;57.67
14383;BME280;7275;50.328;8.720;2023-08-06T07:24:46;98581.09;;;21.44;57.33
14383;BME280;7275;50.328;8.720;2023-08-06T07:27:13;98573.47;;;21.39;57.52
14383;BME280;7275;50.328;8.720;2023-08-06T07:29:41;98577.38;;;21.45;57.23
14383;BME280;7275;50.328;8.720;2023-08-06T07:32:08;98571.16;;;21.44;57.46
14383;BME280;7275;50.328;8.720;2023-08-06T07:34:36;98584.59;;;21.44;57.43
14383;BME280;7275;50.328;8.720;2023-08-06T07:37:04;98579.38;;;21.43;57.68
14383;BME280;7275;50.328;8.720;2023-08-06T07:39:33;98574.94;;;21.34;57.92
14383;BME280;7275;50.328;8.720;2023-08-06T07:42:01;98583.38;;;21.39;57.71
14383;BME280;7275;50.328;8.720;2023-08-06T07:44:31;98577.31;;;21.37;57.94
14383;BME280;7275;50.328;8.720;2023-08-06T07:46:58;98581.31;;;21.33;57.79
14383;BME280;7275;50.328;8.720;2023-08-06T07:49:26;98583.13;;;21.32;58.02
14383;BME280;7275;50.328;8.720;2023-08-06T07:51:54;98579.06;;;21.28;57.80
14383;BME280;7275;50.328;8.720;2023-08-06T07:54:21;98564.63;;;21.29;58.07
14383;BME280;7275;50.328;8.720;2023-08-06T07:56:51;98578.09;;;21.29;57.76
14383;BME280;7275;50.328;8.720;2023-08-06T07:59:19;98579.75;;;21.30;58.16
14383;BME280;7275;50.328;8.720;2023-08-06T08:01:47;98572.63;;;21.39;57.77
14383;BME280;7275;50.328;8.720;2023-08-06T08:04:15;98571.78;;;21.38;57.98
14383;BME280;7275;50.328;8.720;2023-08-06T08:06:42;98573.31;;;21.41;58.35
14383;BME280;7275;50.328;8.720;2023-08-06T08:09:10;98575.72;;;21.44;57.73
14383;BME280;7275;50.328;8.720;2023-08-06T08:11:39;98569.72;;;21.50;58.29
14383;BME280;7275;50.328;8.720;2023-08-06T08:14:08;98564.34;;;21.50;58.23
14383;BME280;7275;50.328;8.720;2023-08-06T08:16:36;98565.09;;;21.60;58.13
14383;BME280;7275;50.328;8.720;2023-08-06T08:19:05;98567.88;;;21.68;58.07
14383;BME280;7275;50.328;8.720;2023-08-06T08:21:32;98568.50;;;21.80;58.17
14383;BME280;7275;50.328;8.720;2023-08-06T08:24:00;98565.34;;;21.84;57.94
14383;BME280;7275;50.328;8.720;2023-08-06T08:26:28;98560.88;;;21.93;57.51
14383;BME280;7275;50.328;8.720;2023-08-06T08:28:56;98564.00;;;22.06;57.37
14383;BME280;7275;50.328;8.720;2023-08-06T08:31:25;98574.84;;;22.14;57.15
14383;BME280;7275;50.328;8.720;2023-08-06T08:33:52;98573.69;;;22.16;56.83
14383;BME280;7275;50.328;8.720;2023-08-06T08:36:22;98573.16;;;22.13;56.67
14383;BME280;7275;50.328;8.720;2023-08-06T08:38:50;98561.53;;;22.12;56.96
14383;BME280;7275;50.328;8.720;2023-08-06T08:41:20;98565.56;;;22.08;56.82
14383;BME280;7275;50.328;8.720;2023-08-06T08:43:49;98551.88;;;22.02;57.02
14383;BME280;7275;50.328;8.720;2023-08-06T08:46:19;98553.94;;;22.08;56.89
14383;BME280;7275;50.328;8.720;2023-08-06T08:48:48;98551.13;;;22.17;57.00
14383;BME280;7275;50.328;8.720;2023-08-06T08:51:16;98549.06;;;22.37;56.71
14383;BME280;7275;50.328;8.720;2023-08-06T08:53:45;98546.53;;;22.61;56.49
14383;BME280;7275;50.328;8.720;2023-08-06T08:56:14;98543.94;;;22.77;55.84
14383;BME280;7275;50.328;8.720;2023-08-06T08:58:43;98548.91;;;22.98;56.04
14383;BME280;7275;50.328;8.720;2023-08-06T09:01:11;98545.25;;;23.15;55.88
14383;BME280;7275;50.328;8.720;2023-08-06T09:03:39;98547.84;;;23.33;54.65
14383;BME280;7275;50.328;8.720;2023-08-06T09:06:08;98540.13;;;23.54;54.11
14383;BME280;7275;50.328;8.720;2023-08-06T09:08:49;98546.06;;;23.73;53.49
14383;BME280;7275;50.328;8.720;2023-08-06T09:11:18;98542.69;;;23.88;53.71
14383;BME280;7275;50.328;8.720;2023-08-06T09:13:47;98540.84;;;24.04;52.95
14383;BME280;7275;50.328;8.720;2023-08-06T09:16:15;98543.03;;;24.17;52.95
14383;BME280;7275;50.328;8.720;2023-08-06T09:18:43;98537.44;;;24.34;53.24
14383;BME280;7275;50.328;8.720;2023-08-06T09:21:14;98538.22;;;24.43;52.60
14383;BME280;7275;50.328;8.720;2023-08-06T09:23:43;98540.69;;;24.69;52.76
14383;BME280;7275;50.328;8.720;2023-08-06T09:26:11;98539.19;;;24.74;51.88
14383;BME280;7275;50.328;8.720;2023-08-06T09:28:42;98538.13;;;24.83;51.98
14383;BME280;7275;50.328;8.720;2023-08-06T09:31:10;98540.28;;;24.96;51.45
14383;BME280;7275;50.328;8.720;2023-08-06T09:33:38;98535.78;;;25.19;51.65
14383;BME280;7275;50.328;8.720;2023-08-06T09:36:10;98533.06;;;25.50;51.88
14383;BME280;7275;50.328;8.720;2023-08-06T09:38:40;98535.09;;;25.70;49.76
14383;BME280;7275;50.328;8.720;2023-08-06T09:41:08;98532.28;;;25.86;49.92
14383;BME280;7275;50.328;8.720;2023-08-06T09:43:42;98539.16;;;25.97;49.34
14383;BME280;7275;50.328;8.720;2023-08-06T09:46:11;98528.97;;;25.99;49.33
14383;BME280;7275;50.328;8.720;2023-08-06T09:48:40;98533.53;;;25.98;48.55
14383;BME280;7275;50.328;8.720;2023-08-06T09:51:08;98537.09;;;25.99;48.83
14383;BME280;7275;50.328;8.720;2023-08-06T09:53:37;98532.69;;;25.98;48.97
14383;BME280;7275;50.328;8.720;2023-08-06T09:56:08;98530.34;;;25.95;48.15
14383;BME280;7275;50.328;8.720;2023-08-06T09:58:38;98533.59;;;25.90;48.23
14383;BME280;7275;50.328;8.720;2023-08-06T10:01:06;98522.59;;;25.92;48.19
14383;BME280;7275;50.328;8.720;2023-08-06T10:03:35;98527.00;;;25.93;47.69
14383;BME280;7275;50.328;8.720;2023-08-06T10:06:04;98521.94;;;25.90;47.24
14383;BME280;7275;50.328;8.720;2023-08-06T10:08:34;98524.50;;;25.83;46.98
14383;BME280;7275;50.328;8.720;2023-08-06T10:11:02;98526.75;;;25.80;46.18
14383;BME280;7275;50.328;8.720;2023-08-06T10:13:34;98529.53;;;25.72;46.05
14383;BME280;7275;50.328;8.720;2023-08-06T10:16:03;98519.63;;;25.79;46.76
14383;BME280;7275;50.328;8.720;2023-08-06T10:18:33;98516.91;;;26.01;46.81
14383;BME280;7275;50.328;8.720;2023-08-06T10:21:02;98516.44;;;26.35;47.32
14383;BME280;7275;50.328;8.720;2023-08-06T10:23:33;98510.03;;;26.80;46.70
14383;BME280;7275;50.328;8.720;2023-08-06T10:26:04;98508.06;;;27.24;43.89
14383;BME280;7275;50.328;8.720;2023-08-06T10:28:37;98508.03;;;27.60;42.85
14383;BME280;7275;50.328;8.720;2023-08-06T10:31:06;98515.22;;;27.89;41.19
14383;BME280;7275;50.328;8.720;2023-08-06T10:33:43;98512.09;;;28.13;40.10
14383;BME280;7275;50.328;8.720;2023-08-06T10:36:12;98514.72;;;28.27;39.33
14383;BME280;7275;50.328;8.720;2023-08-06T10:38:50;98503.06;;;28.33;39.59
14383;BME280;7275;50.328;8.720;2023-08-06T10:41:23;98507.06;;;28.37;39.75
14383;BME280;7275;50.328;8.720;2023-08-06T10:43:52;98504.38;;;28.44;39.22
14383;BME280;7275;50.328;8.720;2023-08-06T10:46:32;98505.91;;;28.53;40.24
14383;BME280;7275;50.328;8.720;2023-08-06T10:49:00;98498.50;;;28.75;40.33
14383;BME280;7275;50.328;8.720;2023-08-06T10:51:28;98497.44;;;29.10;40.29
14383;BME280;7275;50.328;8.720;2023-08-06T10:53:56;98491.91;;;29.44;40.49
14383;BME280;7275;50.328;8.720;2023-08-06T10:56:25;98494.09;;;29.88;39.39
14383;BME280;7275;50.328;8.720;2023-08-06T10:58:55;98494.09;;;30.01;38.73
14383;BME280;7275;50.328;8.720;2023-08-06T11:01:23;98501.25;;;29.95;36.78
14383;BME280;7275;50.328;8.720;2023-08-06T11:03:51;98497.25;;;29.85;36.44
14383;BME280;7275;50.328;8.720;2023-08-06T11:06:21;98497.25;;;29.85;37.48
14383;BME280;7275;50.328;8.720;2023-08-06T11:08:50;98485.91;;;30.01;38.67
14383;BME280;7275;50.328;8.720;2023-08-06T11:11:18;98490.13;;;30.36;38.28
14383;BME280;7275;50.328;8.720;2023-08-06T11:13:47;98476.34;;;30.75;37.01
14383;BME280;7275;50.328;8.720;2023-08-06T11:16:17;98482.91;;;31.19;37.59
14383;BME280;7275;50.328;8.720;2023-08-06T11:18:45;98487.28;;;31.71;35.14
14383;BME280;7275;50.328;8.720;2023-08-06T11:21:13;98471.28;;;32.23;33.60
14383;BME280;7275;50.328;8.720;2023-08-06T11:23:41;98469.06;;;32.57;33.31
14383;BME280;7275;50.328;8.720;2023-08-06T11:26:09;98473.44;;;32.64;32.73
14383;BME280;7275;50.328;8.720;2023-08-06T11:28:36;98479.88;;;32.52;33.17
14383;BME280;7275;50.328;8.720;2023-08-06T11:31:04;98497.06;;;32.34;34.34
14383;BME280;7275;50.328;8.720;2023-08-06T11:33:33;98511.06;;;32.01;35.50
14383;BME280;7275;50.328;8.720;2023-08-06T11:36:01;98507.31;;;31.65;36.35
14383;BME280;7275;50.328;8.720;2023-08-06T11:38:29;98514.00;;;31.24;36.03
14383;BME280;7275;50.328;8.720;2023-08-06T11:40:56;98525.91;;;30.86;36.54
14383;BME280;7275;50.328;8.720;2023-08-06T11:43:24;98524.31;;;30.39;36.96
14383;BME280;7275;50.328;8.720;2023-08-06T11:45:52;98530.38;;;29.95;37.78
14383;BME280;7275;50.328;8.720;2023-08-06T11:48:21;98513.50;;;29.52;37.80
14383;BME280;7275;50.328;8.720;2023-08-06T11:50:54;98518.59;;;29.14;39.15
14383;BME280;7275;50.328;8.720;2023-08-06T11:53:22;98531.03;;;28.83;39.29
14383;BME280;7275;50.328;8.720;2023-08-06T11:55:54;98544.47;;;28.57;40.12
14383;BME280;7275;50.328;8.720;2023-08-06T11:58:22;98557.88;;;28.09;39.37
14383;BME280;7275;50.328;8.720;2023-08-06T12:00:50;98561.72;;;27.58;39.95
14383;BME280;7275;50.328;8.720;2023-08-06T12:03:18;98556.31;;;27.08;41.23
14383;BME280;7275;50.328;8.720;2023-08-06T12:05:46;98573.94;;;26.60;42.25
14383;BME280;7275;50.328;8.720;2023-08-06T12:08:15;98560.88;;;26.11;43.01
14383;BME280;7275;50.328;8.720;2023-08-06T12:10:43;98569.47;;;25.70;43.77
14383;BME280;7275;50.328;8.720;2023-08-06T12:13:12;98575.25;;;25.36;44.37
14383;BME280;7275;50.328;8.720;2023-08-06T12:15:40;98582.13;;;25.08;44.94
14383;BME280;7275;50.328;8.720;2023-08-06T12:18:08;98574.47;;;24.81;45.44
14383;BME280;7275;50.328;8.720;2023-08-06T12:20:35;98581.28;;;24.60;46.17
14383;BME280;7275;50.328;8.720;2023-08-06T12:23:04;98574.91;;;24.37;46.32
14383;BME280;7275;50.328;8.720;2023-08-06T12:25:32;98561.06;;;24.16;46.98
14383;BME280;7275;50.328;8.720;2023-08-06T12:28:00;98563.41;;;23.95;46.78
14383;BME280;7275;50.328;8.720;2023-08-06T12:30:28;98573.19;;;23.72;47.06
14383;BME280;7275;50.328;8.720;2023-08-06T12:32:55;98573.47;;;23.45;47.40
14383;BME280;7275;50.328;8.720;2023-08-06T12:35:23;98565.97;;;23.15;47.59
14383;BME280;7275;50.328;8.720;2023-08-06T12:37:52;98594.53;;;22.91;48.06
14383;BME280;7275;50.328;8.720;2023-08-06T12:40:20;98586.38;;;22.75;48.86
14383;BME280;7275;50.328;8.720;2023-08-06T12:43:04;98598.19;;;22.57;48.99
14383;BME280;7275;50.328;8.720;2023-08-06T12:45:32;98606.69;;;22.44;49.12
14383;BME280;7275;50.328;8.720;2023-08-06T12:48:00;98608.78;;;22.33;49.95
14383;BME280;7275;50.328;8.720;2023-08-06T12:50:27;98606.38;;;22.21;49.54
14383;BME280;7275;50.328;8.720;2023-08-06T12:52:55;98618.75;;;22.14;49.92
14383;BME280;7275;50.328;8.720;2023-08-06T12:55:23;98638.22;;;22.08;49.50
14383;BME280;7275;50.328;8.720;2023-08-06T12:57:51;98633.13;;;22.05;50.10
14383;BME280;7275;50.328;8.720;2023-08-06T13:00:26;98643.69;;;21.99;49.94
14383;BME280;7275;50.328;8.720;2023-08-06T13:02:54;98647.56;;;21.96;50.22
14383;BME280;7275;50.328;8.720;2023-08-06T13:05:21;98647.00;;;21.93;50.08
14383;BME280;7275;50.328;8.720;2023-08-06T13:07:49;98646.06;;;21.84;50.20
14383;BME280;7275;50.328;8.720;2023-08-06T13:10:17;98660.94;;;21.79;50.02
14383;BME280;7275;50.328;8.720;2023-08-06T13:12:46;98656.19;;;21.73;50.56
14383;BME280;7275;50.328;8.720;2023-08-06T13:15:14;98678.16;;;21.68;50.62
14383;BME280;7275;50.328;8.720;2023-08-06T13:17:44;98675.63;;;21.67;50.31
14383;BME280;7275;50.328;8.720;2023-08-06T13:20:12;98676.63;;;21.66;50.61